Kinkler, Texas
Current Conditions -  °F | °C
As of 8:15 PM on Saturday 22 Nov 2014 (Local Time) from K66R Reporting Station
Thunderstorm Thunderstorm  
Wind Chill: 67°   Ceiling: 1500
Heat Index: 67°   Visibility: 10mi
Dew Point: 66°   Wind: 10mph
Humidity: 95%   Direction: 170°S
Pressure: 29.79"   Gusts: 17mph
Location:  29.3984°N, 96.8256°W
Report Text: K66R 230215Z AUTO 17009G15KT 10SM -TSRA SCT010 BKN015 OVC023 20/19 A2979 RMK AO2 LTG DSNT ALQS T01950187
Loading
Personal Weather Stations






























Interactive Weather Map New forecast layout! Learn more

10-Day Weather Forecast

Advertisements
Track Severe Weather on mobile